Concho, OK (73022)

1:02 AM CDT on October 26, 2014 (GMT -0500)
E. Mills and S. Rock Island Ave | Change Station
CLOSE
Current Station
Personal Weather Station
Location: El Reno, OK
Elevation: 1385 ft
Nearby Weather Stations

Elev 1385 ft 35.52 °N, 97.95 °W | Updated 2 minutes ago

Clear
Clear
68.4 °F
Feels Like 68.4 °F
N
5.8
Wind Variable Wind from WNW

Today
High -- | Low -- °F
--% Chance of Precip.
Yesterday
High -- | Low -- °F
Precip. -- in
7:48 AM 6:43 PM
Waxing Crescent, 6% visible
Pressure 30.00 in
Visibility -9999.0 miles
Clouds Clear
Dew Point 57 °F
Humidity 68%
Rainfall 0.00 in
Snow Depth Not available.
UV 0 out of 12
Pollen 5.60 out of 12
Ozone Good
PM2.5 Good
Flu Activity Sporadic
METAR KRCE 260535Z AUTO 19010KT CLR 19/14 A3000 RMK AO2

More Conditions Fewer Conditions

Pressure 30.00 in
Visibility -9999.0 miles
Clouds Clear
Dew Point 57 °F
Humidity 68%
Rainfall 0.00 in
Snow Depth Not available.
UV 0 out of 12
Pollen 5.60 out of 12
Ozone Good
PM2.5 Good
Flu Activity Sporadic
METAR KRCE 260535Z AUTO 19010KT CLR 19/14 A3000 RMK AO2

More Conditions Fewer Conditions

10-Day Weather Forecast

Almanac

Astronomy

Oct. 26, 2014 Rise Set
Actual Time 7:48 AM CDT 6:43 PM CDT
Civil Twilight 7:22 AM CDT 7:09 PM CDT
Nautical Twilight 6:52 AM CDT 7:39 PM CDT
Astronomical Twilight 6:22 AM CDT 8:08 PM CDT
Moon 10:24 AM CDT 8:59 PM CDT
Length of Visible Light 11h 46m
Length of Day
10h 54m
Tomorrow will be 2m 3s shorter.
Waxing Crescent, 6% of the Moon is Illuminated
Today
Waxing Crescent
Oct 30
First Quarter
Nov 6
Full
Nov 14
Last Quarter
Nov 22
New

Today's Extremes

State Highs State Lows

Community

WunderPhotos

Upload Photos

1,765,113 photos uploaded!

Nearby

Air Quality

  Air Quality AQ Index Pollutant
Yesterday Moderate
PM2.5
Yesterday Good
OZONE
Current Good
PM2.5
Current Good
OZONE
Saturday Moderate
PM2.5
Saturday Good
OZONE
Sunday Moderate
PM2.5
Sunday Good
OZONE
Monday Moderate
PM2.5
Monday Good
OZONE
Tuesday Moderate
PM2.5
Tuesday Good
OZONE
Wednesday Good
OZONE
Wednesday Good
PM2.5

Snow Depth

Station Depth Elevation
No new snow has been reported.

Earthquake Activity

City Distance Mag. Time & Date
Mooreland, Oklahoma 82 miles 2.9 3:21 PM CDT
2014-10-25
Jones, Oklahoma 44 miles 3.0 12:10 PM CDT
2014-10-25
Langston, Oklahoma 42 miles 3.0 7:36 AM CDT
2014-10-25
Pawnee, Oklahoma 73 miles 2.6 7:24 PM CDT
2014-10-24
Minimum magnitude displayed is 2.5.

Coastal Water Temperatures

Place Temperature
No Stations Reporting

Nearby Weather Stations